Time;durP1;ratioP1;P1;durP2;ratioP2;P2;SDS_P1;SDS_P2;PMS_P1;PMS_P2;Temp;Humidity;BMP_temperature;BMP_pressure;BME280_temperature;BME280_humidity;BME280_pressure;Samples;Min_cycle;Max_cycle;Signal;HPM_P1;HPM_P2
2023/09/19 00:02:08;;;;;;;0.60;0.50;;;15.80;99.90;;;;;;5070845;28;20507;-87
2023/09/19 00:04:39;;;;;;;1.77;0.50;;;15.80;99.90;;;;;;5064040;28;20464;-88
2023/09/19 00:07:06;;;;;;;0.50;0.37;;;15.80;99.90;;;;;;5074544;28;21245;-87
2023/09/19 00:09:37;;;;;;;1.07;0.40;;;15.80;99.90;;;;;;5065017;28;20485;-86
2023/09/19 00:12:05;;;;;;;1.23;0.60;;;15.90;99.90;;;;;;5070629;28;20537;-88
2023/09/19 00:14:34;;;;;;;0.50;0.40;;;15.80;99.90;;;;;;5072621;28;20899;-87
2023/09/19 00:17:05;;;;;;;1.07;0.50;;;15.80;99.90;;;;;;5065510;28;20487;-87
2023/09/19 00:19:34;;;;;;;0.40;0.30;;;15.80;99.90;;;;;;5060853;28;20544;-89
2023/09/19 00:22:01;;;;;;;1.63;0.50;;;15.80;99.90;;;;;;5063753;28;20805;-85
2023/09/19 00:24:28;;;;;;;0.70;0.60;;;15.80;99.90;;;;;;5072045;28;20495;-87
2023/09/19 00:26:56;;;;;;;5.13;0.50;;;15.80;99.90;;;;;;5070656;28;20467;-89
2023/09/19 00:29:23;;;;;;;1.17;0.50;;;15.90;99.90;;;;;;5067155;28;20906;-87
2023/09/19 00:31:50;;;;;;;0.70;0.50;;;16.00;99.90;;;;;;5067410;28;20609;-86
2023/09/19 00:34:18;;;;;;;0.50;0.50;;;16.00;99.90;;;;;;5067348;28;20452;-87
2023/09/19 00:36:47;;;;;;;0.60;0.40;;;15.90;99.90;;;;;;5066936;28;21162;-86
2023/09/19 00:39:14;;;;;;;0.70;0.40;;;15.90;99.90;;;;;;5073649;28;20517;-87
2023/09/19 00:41:41;;;;;;;0.93;0.70;;;15.90;99.90;;;;;;5070536;28;20923;-87
2023/09/19 00:44:10;;;;;;;0.83;0.40;;;15.80;99.90;;;;;;5069171;28;21174;-86
2023/09/19 00:46:37;;;;;;;0.97;0.53;;;15.80;99.90;;;;;;5071770;28;20468;-87
2023/09/19 00:49:05;;;;;;;0.90;0.50;;;15.80;99.90;;;;;;5068952;28;20486;-87
2023/09/19 00:51:32;;;;;;;0.83;0.50;;;15.80;99.90;;;;;;5065897;28;21029;-87
2023/09/19 00:54:02;;;;;;;0.60;0.47;;;15.90;99.90;;;;;;5067225;28;21157;-88
2023/09/19 00:56:29;;;;;;;0.53;0.40;;;15.90;99.90;;;;;;5074958;28;20521;-86
2023/09/19 00:58:57;;;;;;;0.60;0.60;;;15.90;99.90;;;;;;5065221;28;20459;-86
2023/09/19 01:01:25;;;;;;;0.50;0.40;;;15.80;99.90;;;;;;5066060;28;20541;-87
2023/09/19 01:03:52;;;;;;;0.63;0.40;;;15.80;99.90;;;;;;5066555;28;20467;-87
2023/09/19 01:06:20;;;;;;;0.73;0.50;;;15.70;99.90;;;;;;5066765;28;21043;-86
2023/09/19 01:08:47;;;;;;;0.60;0.50;;;15.70;99.90;;;;;;5071310;28;20489;-89
2023/09/19 01:11:24;;;;;;;0.97;0.63;;;15.70;99.90;;;;;;5071123;28;20464;-87
2023/09/19 01:13:58;;;;;;;0.97;0.40;;;15.70;99.90;;;;;;5070460;28;21148;-86
2023/09/19 01:16:39;;;;;;;0.60;0.40;;;15.70;99.90;;;;;;5054864;28;20519;-87
2023/09/19 01:19:27;;;;;;;1.43;1.00;;;15.70;99.90;;;;;;5079576;28;20471;-86
2023/09/19 01:22:03;;;;;;;1.50;0.63;;;15.80;99.90;;;;;;5086202;28;20455;-87
2023/09/19 01:24:52;;;;;;;0.80;0.60;;;15.80;99.90;;;;;;5084509;28;20460;-86
2023/09/19 01:27:45;;;;;;;0.60;0.60;;;15.80;99.90;;;;;;5064904;28;20466;-87
2023/09/19 01:30:16;;;;;;;0.70;0.47;;;15.90;99.90;;;;;;5067004;28;20482;-87
2023/09/19 01:32:46;;;;;;;1.90;0.60;;;15.80;99.90;;;;;;5065995;28;20466;-87
2023/09/19 01:35:13;;;;;;;1.00;0.57;;;15.80;99.90;;;;;;5066396;28;20481;-86
2023/09/19 01:37:43;;;;;;;2.00;0.60;;;15.80;99.90;;;;;;5064057;28;20465;-87
2023/09/19 01:40:16;;;;;;;0.77;0.50;;;15.70;99.90;;;;;;5067919;28;20523;-87
2023/09/19 01:42:50;;;;;;;1.70;0.70;;;15.70;99.90;;;;;;5071879;28;20507;-88
2023/09/19 01:45:27;;;;;;;0.53;0.50;;;15.70;99.90;;;;;;5063400;28;20579;-86
2023/09/19 01:47:56;;;;;;;0.97;0.50;;;15.70;99.90;;;;;;5071810;28;20510;-86
2023/09/19 01:50:32;;;;;;;0.80;0.50;;;15.60;99.90;;;;;;5079487;28;20494;-87
2023/09/19 01:53:04;;;;;;;0.97;0.70;;;15.60;99.90;;;;;;5063527;28;20489;-87
2023/09/19 01:55:37;;;;;;;0.70;0.53;;;15.60;99.90;;;;;;5063482;28;20451;-87
2023/09/19 01:58:15;;;;;;;1.37;0.50;;;15.60;99.90;;;;;;5068479;28;21041;-90
2023/09/19 02:00:45;;;;;;;1.47;0.50;;;15.60;99.90;;;;;;5066779;28;20592;-87
2023/09/19 02:03:13;;;;;;;1.53;0.60;;;15.50;99.90;;;;;;5061940;28;20531;-87
2023/09/19 02:05:40;;;;;;;2.30;1.60;;;15.40;99.90;;;;;;5065896;28;20463;-87
2023/09/19 02:08:08;;;;;;;1.43;0.73;;;15.40;99.90;;;;;;5067899;28;20540;-87
2023/09/19 02:10:35;;;;;;;1.13;0.50;;;15.40;99.90;;;;;;5065961;28;20455;-87
2023/09/19 02:13:04;;;;;;;1.47;0.43;;;15.40;99.90;;;;;;5063822;28;20549;-87
2023/09/19 02:15:32;;;;;;;0.70;0.40;;;15.50;99.90;;;;;;5060163;28;20462;-87
2023/09/19 02:18:01;;;;;;;0.70;0.40;;;15.50;99.90;;;;;;5069301;28;20850;-86
2023/09/19 02:20:28;;;;;;;0.60;0.60;;;15.50;99.90;;;;;;5066492;28;20474;-87
2023/09/19 02:22:55;;;;;;;1.07;0.50;;;15.60;99.90;;;;;;5064154;28;20945;-86
2023/09/19 02:25:22;;;;;;;1.83;0.63;;;15.60;99.90;;;;;;5065982;28;20462;-86
2023/09/19 02:27:49;;;;;;;1.00;0.87;;;15.50;99.90;;;;;;5064703;28;20498;-87
2023/09/19 02:30:15;;;;;;;0.70;0.50;;;15.50;99.90;;;;;;5068254;28;20552;-86
2023/09/19 02:32:42;;;;;;;0.80;0.50;;;15.40;99.90;;;;;;5062479;28;20513;-87
2023/09/19 02:35:12;;;;;;;0.50;0.50;;;15.40;99.90;;;;;;5061326;28;20990;-87
2023/09/19 02:37:39;;;;;;;1.50;0.50;;;15.50;99.90;;;;;;5066416;28;20448;-87
2023/09/19 02:40:18;;;;;;;5.70;0.60;;;15.50;99.90;;;;;;5067921;28;20463;-87
2023/09/19 02:42:48;;;;;;;1.80;0.40;;;15.60;99.90;;;;;;5060317;28;20820;-87
2023/09/19 02:45:23;;;;;;;1.47;0.50;;;15.60;99.90;;;;;;5074446;28;20572;-87
2023/09/19 02:47:50;;;;;;;1.10;0.50;;;15.60;99.90;;;;;;5067855;28;20482;-87
2023/09/19 02:50:19;;;;;;;0.70;0.50;;;15.70;99.90;;;;;;5072362;28;20581;-86
2023/09/19 02:52:48;;;;;;;2.53;0.43;;;15.60;99.90;;;;;;5069091;28;20461;-87
2023/09/19 02:55:17;;;;;;;1.10;0.50;;;15.50;99.90;;;;;;5068710;28;21129;-86
2023/09/19 02:57:47;;;;;;;0.80;0.53;;;15.40;99.90;;;;;;5062808;28;20458;-87
2023/09/19 03:00:15;;;;;;;2.83;0.70;;;15.40;99.90;;;;;;5069527;28;20469;-87
2023/09/19 03:02:42;;;;;;;0.80;0.70;;;15.30;99.90;;;;;;5068346;28;20459;-86
2023/09/19 03:05:11;;;;;;;1.43;0.67;;;15.30;99.90;;;;;;5063880;28;20466;-87
2023/09/19 03:07:39;;;;;;;4.33;0.70;;;15.30;99.90;;;;;;5069584;28;20553;-86
2023/09/19 03:10:08;;;;;;;1.30;0.70;;;15.20;99.90;;;;;;5068722;28;20452;-86
2023/09/19 03:12:35;;;;;;;2.80;0.60;;;15.20;99.90;;;;;;5065545;28;20497;-87
2023/09/19 03:15:04;;;;;;;3.50;1.23;;;15.20;99.90;;;;;;5069399;28;20455;-87
2023/09/19 03:17:32;;;;;;;1.87;0.77;;;15.20;99.90;;;;;;5069391;28;20810;-87
2023/09/19 03:19:59;;;;;;;2.90;0.80;;;15.20;99.90;;;;;;5062438;28;20554;-87
2023/09/19 03:22:27;;;;;;;1.00;0.80;;;15.10;99.90;;;;;;5068665;28;20893;-87
2023/09/19 03:24:56;;;;;;;4.20;0.97;;;15.10;99.90;;;;;;5067970;28;20449;-88
2023/09/19 03:27:23;;;;;;;0.87;0.70;;;15.00;99.90;;;;;;5066113;28;20927;-87
2023/09/19 03:29:50;;;;;;;1.13;0.90;;;15.00;99.90;;;;;;5067436;28;20532;-87
2023/09/19 03:32:17;;;;;;;1.30;1.10;;;15.00;99.90;;;;;;5068010;28;20474;-88
2023/09/19 03:34:44;;;;;;;2.77;1.60;;;14.90;99.90;;;;;;5071597;28;20982;-87
2023/09/19 03:37:11;;;;;;;2.77;1.30;;;15.00;99.90;;;;;;5074041;28;20980;-87
2023/09/19 03:39:39;;;;;;;4.40;3.40;;;14.90;99.90;;;;;;5072580;28;20456;-87
2023/09/19 03:42:08;;;;;;;2.30;1.00;;;14.90;99.90;;;;;;5065342;28;21032;-88
2023/09/19 03:44:35;;;;;;;1.27;1.13;;;15.00;99.90;;;;;;5068843;28;20516;-86
2023/09/19 03:47:04;;;;;;;1.20;0.70;;;14.90;99.90;;;;;;5066853;28;20515;-87
2023/09/19 03:49:31;;;;;;;1.57;1.00;;;14.90;99.90;;;;;;5077501;28;20496;-87
2023/09/19 03:51:58;;;;;;;1.67;1.13;;;14.90;99.90;;;;;;5062958;28;20457;-86
2023/09/19 03:54:26;;;;;;;1.60;1.00;;;14.80;99.90;;;;;;5067423;28;20461;-88
2023/09/19 03:56:53;;;;;;;1.33;0.90;;;14.70;99.90;;;;;;5063841;28;20482;-88
2023/09/19 03:59:25;;;;;;;2.20;1.27;;;14.70;99.90;;;;;;5074106;28;20468;-87
2023/09/19 04:01:55;;;;;;;1.63;1.17;;;14.70;99.90;;;;;;5070274;28;20546;-89
2023/09/19 04:04:24;;;;;;;1.97;1.13;;;14.70;99.90;;;;;;5058290;28;20520;-84
2023/09/19 04:06:52;;;;;;;2.23;2.03;;;14.70;99.90;;;;;;5060903;28;21134;-85
2023/09/19 04:09:18;;;;;;;1.43;1.33;;;14.80;99.90;;;;;;5065220;28;20486;-85
2023/09/19 04:11:45;;;;;;;0.97;0.60;;;14.80;99.90;;;;;;5067417;28;20442;-88
2023/09/19 04:14:12;;;;;;;2.30;1.20;;;14.80;99.90;;;;;;5069275;28;20525;-85
2023/09/19 04:16:41;;;;;;;1.70;1.00;;;14.90;99.90;;;;;;5066863;28;20474;-85
2023/09/19 04:19:08;;;;;;;1.93;1.00;;;14.90;99.90;;;;;;5056861;28;20550;-85
2023/09/19 04:21:35;;;;;;;1.40;0.93;;;15.00;99.90;;;;;;5060129;28;20458;-85
2023/09/19 04:24:02;;;;;;;1.37;1.00;;;15.00;99.90;;;;;;5066284;28;20460;-87
2023/09/19 04:26:29;;;;;;;1.93;1.43;;;14.90;99.90;;;;;;5065442;28;20487;-86
2023/09/19 04:28:57;;;;;;;3.53;1.70;;;14.90;99.90;;;;;;5071224;28;20551;-88
2023/09/19 04:31:24;;;;;;;2.77;1.40;;;14.80;99.90;;;;;;5075023;28;20470;-85
2023/09/19 04:33:52;;;;;;;1.00;0.80;;;14.80;99.90;;;;;;5075057;28;20524;-85
2023/09/19 04:36:20;;;;;;;1.70;1.00;;;14.80;99.90;;;;;;5067805;28;20512;-87
2023/09/19 04:38:47;;;;;;;1.73;1.20;;;14.80;99.90;;;;;;5069384;28;20466;-86
2023/09/19 04:41:14;;;;;;;1.30;1.13;;;14.70;99.90;;;;;;5071391;28;20459;-85
2023/09/19 04:43:41;;;;;;;3.93;1.30;;;14.80;99.90;;;;;;5071319;28;20467;-86
2023/09/19 04:46:08;;;;;;;6.67;1.17;;;14.80;99.90;;;;;;5075755;28;20462;-84
2023/09/19 04:48:36;;;;;;;1.23;1.00;;;14.80;99.90;;;;;;5068374;28;20487;-84
2023/09/19 04:51:05;;;;;;;1.67;1.07;;;14.80;99.90;;;;;;5066869;28;20482;-86
2023/09/19 04:53:32;;;;;;;3.10;1.37;;;14.80;99.90;;;;;;5070934;28;20917;-87
2023/09/19 04:55:59;;;;;;;3.10;1.07;;;14.90;99.90;;;;;;5066443;28;20540;-87
2023/09/19 04:58:26;;;;;;;4.70;1.10;;;14.90;99.90;;;;;;5062918;28;20530;-85
2023/09/19 05:00:52;;;;;;;1.97;0.70;;;14.90;99.90;;;;;;5059385;28;20524;-85
2023/09/19 05:03:20;;;;;;;2.43;1.03;;;14.90;99.90;;;;;;5061500;28;20520;-85
2023/09/19 05:05:46;;;;;;;1.73;0.90;;;14.90;99.90;;;;;;5058076;28;20519;-86
2023/09/19 05:08:15;;;;;;;0.80;0.63;;;14.90;99.90;;;;;;5070614;28;20493;-86
2023/09/19 05:10:42;;;;;;;0.90;0.70;;;14.90;99.90;;;;;;5067150;28;20582;-88
2023/09/19 05:13:09;;;;;;;4.33;1.00;;;14.90;99.90;;;;;;5067894;28;20490;-85
2023/09/19 05:15:36;;;;;;;1.23;0.87;;;15.00;99.90;;;;;;5074979;28;20477;-85
2023/09/19 05:18:03;;;;;;;1.97;0.93;;;15.10;99.90;;;;;;5065805;28;21113;-85
2023/09/19 05:20:32;;;;;;;2.03;0.80;;;15.10;99.90;;;;;;5071775;28;20451;-85
2023/09/19 05:23:02;;;;;;;2.00;1.17;;;15.20;99.90;;;;;;5071858;28;20479;-86
2023/09/19 05:25:37;;;;;;;6.73;0.87;;;15.20;99.90;;;;;;5079933;28;20471;-86
2023/09/19 05:28:05;;;;;;;1.40;1.20;;;15.20;99.90;;;;;;5069896;28;20555;-86
2023/09/19 05:30:33;;;;;;;1.23;0.90;;;15.30;99.90;;;;;;5075966;28;21139;-84
2023/09/19 05:33:00;;;;;;;1.10;0.70;;;15.40;99.90;;;;;;5066203;28;20447;-85
2023/09/19 05:35:27;;;;;;;1.37;0.73;;;15.40;99.90;;;;;;5062996;28;20452;-86
2023/09/19 05:37:55;;;;;;;1.40;1.00;;;15.40;99.90;;;;;;5060855;28;20879;-86
2023/09/19 05:40:23;;;;;;;4.07;1.77;;;15.50;99.90;;;;;;5053305;28;20487;-86
2023/09/19 05:42:51;;;;;;;2.40;1.33;;;15.50;99.90;;;;;;5065408;28;20501;-85
2023/09/19 05:45:22;;;;;;;2.40;1.07;;;15.60;99.90;;;;;;5057823;28;20464;-86
2023/09/19 05:47:49;;;;;;;1.20;1.10;;;15.60;99.90;;;;;;5060790;28;20545;-87
2023/09/19 05:50:18;;;;;;;2.40;2.10;;;15.60;99.90;;;;;;5059234;28;20495;-86
2023/09/19 05:52:52;;;;;;;0.60;0.60;;;15.70;99.90;;;;;;5067914;28;20455;-87
2023/09/19 05:55:19;;;;;;;6.63;0.97;;;15.80;99.90;;;;;;5066377;28;20456;-86
2023/09/19 05:57:52;;;;;;;0.90;0.77;;;15.90;99.90;;;;;;5066533;28;20554;-89
2023/09/19 06:00:22;;;;;;;2.90;1.93;;;15.90;99.90;;;;;;5065352;28;20537;-86
2023/09/19 06:02:51;;;;;;;0.93;0.60;;;15.90;99.90;;;;;;5067487;28;20486;-86
2023/09/19 06:05:19;;;;;;;1.00;0.70;;;15.90;99.90;;;;;;5054426;28;20472;-85
2023/09/19 06:07:46;;;;;;;0.90;0.60;;;15.80;99.90;;;;;;5066403;28;20466;-88
2023/09/19 06:10:14;;;;;;;2.30;0.90;;;15.80;99.90;;;;;;5066842;28;20486;-87
2023/09/19 06:12:43;;;;;;;0.87;0.77;;;15.80;99.90;;;;;;5066864;28;20447;-86
2023/09/19 06:15:15;;;;;;;0.87;0.70;;;15.90;99.90;;;;;;5065375;28;20549;-87
2023/09/19 06:17:42;;;;;;;1.33;1.00;;;16.00;99.90;;;;;;5071739;28;20846;-85
2023/09/19 06:20:13;;;;;;;1.77;0.80;;;16.10;99.90;;;;;;5077745;28;20448;-85
2023/09/19 06:22:41;;;;;;;2.90;0.80;;;16.00;99.90;;;;;;5081643;28;20467;-86
2023/09/19 06:25:11;;;;;;;1.53;1.03;;;16.00;99.90;;;;;;5072289;28;20459;-85
2023/09/19 06:27:39;;;;;;;1.07;1.07;;;16.00;99.90;;;;;;5068109;28;21030;-85
2023/09/19 06:30:08;;;;;;;1.20;1.07;;;16.10;99.90;;;;;;5068357;28;20482;-87
2023/09/19 06:32:37;;;;;;;1.37;0.90;;;16.10;99.90;;;;;;5065023;28;20517;-86
2023/09/19 06:35:07;;;;;;;0.80;0.60;;;16.10;99.90;;;;;;5065667;28;20529;-86
2023/09/19 06:37:34;;;;;;;1.83;0.77;;;16.20;99.90;;;;;;5064943;28;20994;-86
2023/09/19 06:40:01;;;;;;;1.17;0.60;;;16.20;99.90;;;;;;5061022;28;20472;-86
2023/09/19 06:42:28;;;;;;;1.50;0.50;;;16.30;99.90;;;;;;5062252;28;20455;-86
2023/09/19 06:44:56;;;;;;;1.07;0.97;;;16.30;99.90;;;;;;5066572;28;21041;-89
2023/09/19 06:47:25;;;;;;;1.47;0.70;;;16.40;99.90;;;;;;5066192;28;20457;-86
2023/09/19 06:49:54;;;;;;;0.83;0.60;;;16.50;99.90;;;;;;5057684;28;20503;-85
2023/09/19 06:52:21;;;;;;;0.70;0.70;;;16.50;99.90;;;;;;5065756;28;21138;-87
2023/09/19 06:54:50;;;;;;;1.93;0.63;;;16.60;99.90;;;;;;5067407;28;20452;-88
2023/09/19 06:57:17;;;;;;;4.07;1.00;;;16.60;99.90;;;;;;5068554;28;20458;-85
2023/09/19 06:59:44;;;;;;;1.40;1.10;;;16.50;99.90;;;;;;5066121;28;20880;-87
2023/09/19 07:02:11;;;;;;;1.30;0.80;;;16.50;99.90;;;;;;5063874;28;21027;-87
2023/09/19 07:04:38;;;;;;;0.90;0.70;;;16.50;99.90;;;;;;5058055;28;20845;-88
2023/09/19 07:07:07;;;;;;;0.67;0.60;;;16.40;99.90;;;;;;5061340;28;20443;-87
2023/09/19 07:09:34;;;;;;;1.67;1.30;;;16.50;99.90;;;;;;5060547;28;20491;-87
2023/09/19 07:12:01;;;;;;;1.27;1.13;;;16.70;99.90;;;;;;5060980;28;21063;-89
2023/09/19 07:14:30;;;;;;;2.30;0.80;;;16.80;99.90;;;;;;5061701;28;20443;-87
2023/09/19 07:16:58;;;;;;;2.57;1.00;;;17.00;99.90;;;;;;5063844;28;20448;-86
2023/09/19 07:19:28;;;;;;;1.40;0.90;;;17.30;99.90;;;;;;5070016;28;20524;-88
2023/09/19 07:21:55;;;;;;;0.80;0.63;;;17.50;99.90;;;;;;5067590;28;20535;-88
2023/09/19 07:24:23;;;;;;;2.00;0.70;;;17.70;99.90;;;;;;5063566;28;20941;-89
2023/09/19 07:26:51;;;;;;;2.43;1.00;;;17.90;99.90;;;;;;5066729;28;20444;-87
2023/09/19 07:29:18;;;;;;;0.80;0.80;;;18.00;99.90;;;;;;5059465;28;20473;-87
2023/09/19 07:31:45;;;;;;;2.03;0.90;;;17.90;99.90;;;;;;5052921;28;20448;-88
2023/09/19 07:34:12;;;;;;;1.37;0.87;;;17.80;99.90;;;;;;5065814;28;20509;-89
2023/09/19 07:36:40;;;;;;;1.87;0.80;;;17.70;99.90;;;;;;5065404;28;20459;-86
2023/09/19 07:39:07;;;;;;;1.60;0.60;;;17.70;99.90;;;;;;5061465;28;20476;-89
2023/09/19 07:41:36;;;;;;;1.43;0.80;;;17.90;99.90;;;;;;5064787;28;20463;-88
2023/09/19 07:44:03;;;;;;;1.10;0.70;;;18.10;99.90;;;;;;5067001;28;20555;-87
2023/09/19 07:46:31;;;;;;;1.60;0.60;;;18.20;99.90;;;;;;5063532;28;21228;-89
2023/09/19 07:48:57;;;;;;;0.53;0.50;;;18.20;99.90;;;;;;5058937;28;20505;-87
2023/09/19 07:51:24;;;;;;;5.80;0.50;;;18.40;99.90;;;;;;5070189;28;21078;-89
2023/09/19 07:53:51;;;;;;;1.33;0.53;;;18.60;99.90;;;;;;5060831;28;20813;-86
2023/09/19 07:56:20;;;;;;;1.00;0.70;;;18.60;99.90;;;;;;5067905;28;21011;-88
2023/09/19 07:58:48;;;;;;;0.60;0.57;;;18.70;99.90;;;;;;5067881;28;20941;-87
2023/09/19 08:01:16;;;;;;;0.50;0.40;;;18.60;99.90;;;;;;5068472;28;20951;-86
2023/09/19 08:03:43;;;;;;;0.87;0.43;;;18.50;99.90;;;;;;5069046;28;20475;-88
2023/09/19 08:06:11;;;;;;;1.27;0.70;;;18.50;99.90;;;;;;5065121;28;21085;-89
2023/09/19 08:08:38;;;;;;;0.90;0.50;;;18.40;99.90;;;;;;5073375;28;20452;-88
2023/09/19 08:11:11;;;;;;;0.50;0.40;;;18.40;99.90;;;;;;5070297;28;20555;-89
2023/09/19 08:13:41;;;;;;;0.80;0.70;;;18.30;99.90;;;;;;5075896;28;20462;-88
2023/09/19 08:16:09;;;;;;;1.33;0.60;;;18.10;99.90;;;;;;5068621;28;20475;-87
2023/09/19 08:18:36;;;;;;;0.60;0.50;;;18.10;99.90;;;;;;5060919;28;20472;-89
2023/09/19 08:21:03;;;;;;;0.80;0.50;;;18.10;99.90;;;;;;5063621;28;20461;-90
2023/09/19 08:23:32;;;;;;;1.33;0.60;;;18.00;99.90;;;;;;5059585;28;20947;-90
2023/09/19 08:26:02;;;;;;;1.27;0.40;;;18.10;99.90;;;;;;5066745;28;20463;-88
2023/09/19 08:28:29;;;;;;;3.00;0.67;;;18.20;99.90;;;;;;5061118;28;20454;-88
2023/09/19 08:30:58;;;;;;;1.33;0.50;;;18.30;99.90;;;;;;5066327;28;20533;-88
2023/09/19 08:33:26;;;;;;;2.30;0.40;;;18.30;99.90;;;;;;5066601;28;20931;-91
2023/09/19 08:35:53;;;;;;;0.67;0.50;;;18.50;99.90;;;;;;5064839;28;20934;-89
2023/09/19 08:38:20;;;;;;;0.57;0.40;;;18.60;99.90;;;;;;5063380;28;20954;-90
2023/09/19 08:40:47;;;;;;;0.70;0.70;;;18.60;99.90;;;;;;5060920;28;20951;-89
2023/09/19 08:43:14;;;;;;;0.60;0.50;;;18.60;99.90;;;;;;5060357;28;21098;-89
2023/09/19 08:45:43;;;;;;;1.40;0.57;;;18.60;99.90;;;;;;5060813;28;20530;-90
2023/09/19 08:48:30;;;;;;;0.70;0.60;;;18.80;99.90;;;;;;5062395;28;20543;-90
2023/09/19 08:51:02;;;;;;;0.60;0.40;;;18.90;99.90;;;;;;5057646;28;21055;-89
2023/09/19 08:53:41;;;;;;;0.90;0.40;;;19.00;99.90;;;;;;5062210;28;20452;-87
2023/09/19 08:56:13;;;;;;;1.13;0.50;;;19.00;99.90;;;;;;5058050;28;20538;-90
2023/09/19 08:58:47;;;;;;;0.70;0.50;;;18.80;99.90;;;;;;5067260;28;20455;-90
2023/09/19 09:01:17;;;;;;;2.87;0.50;;;18.70;99.90;;;;;;5066536;28;20980;-91
2023/09/19 09:03:47;;;;;;;1.07;0.40;;;18.50;99.90;;;;;;5066413;28;20450;-90
2023/09/19 09:06:16;;;;;;;0.73;0.50;;;18.50;99.90;;;;;;5066001;28;20488;-87
2023/09/19 09:08:44;;;;;;;0.70;0.60;;;18.50;99.90;;;;;;5071995;28;20467;-88
2023/09/19 09:11:12;;;;;;;2.77;0.70;;;18.60;99.90;;;;;;5067666;28;20487;-90
2023/09/19 09:13:41;;;;;;;1.90;0.70;;;18.70;99.90;;;;;;5063596;28;20501;-88
2023/09/19 09:16:08;;;;;;;1.23;0.50;;;19.00;99.90;;;;;;5064744;28;20728;-88
2023/09/19 09:18:35;;;;;;;1.47;0.67;;;19.30;99.90;;;;;;5060165;28;20490;-90
2023/09/19 09:21:05;;;;;;;0.60;0.60;;;19.40;99.90;;;;;;5062661;28;20524;-87
2023/09/19 09:23:32;;;;;;;2.20;0.50;;;19.50;99.90;;;;;;5069758;28;20471;-90
2023/09/19 09:26:02;;;;;;;1.03;0.50;;;19.60;99.90;;;;;;5057523;28;20503;-89
2023/09/19 09:28:33;;;;;;;1.20;0.70;;;19.70;99.90;;;;;;5062902;28;20917;-88
2023/09/19 09:31:02;;;;;;;1.03;0.67;;;19.80;99.90;;;;;;5063440;28;20621;-90
2023/09/19 09:33:30;;;;;;;0.90;0.90;;;19.80;99.90;;;;;;5061360;28;20499;-87
2023/09/19 09:36:00;;;;;;;0.60;0.40;;;19.70;99.90;;;;;;5055093;28;20447;-89
2023/09/19 09:38:32;;;;;;;1.00;0.77;;;19.60;99.90;;;;;;5063671;28;20490;-89
2023/09/19 09:41:06;;;;;;;1.53;0.50;;;19.50;99.90;;;;;;5059485;28;20489;-87
2023/09/19 09:43:38;;;;;;;0.67;0.50;;;19.50;99.90;;;;;;5062947;28;20443;-87
2023/09/19 09:51:39;;;;;;;0.53;0.53;;;19.90;99.90;;;;;;5059822;28;20496;-88
2023/09/19 09:54:15;;;;;;;1.03;0.40;;;19.90;99.90;;;;;;5061427;28;20510;-87
2023/09/19 09:56:58;;;;;;;2.63;0.63;;;20.00;99.90;;;;;;5072823;28;20886;-87
2023/09/19 09:59:47;;;;;;;1.40;0.50;;;20.00;99.90;;;;;;5074620;28;20518;-89
2023/09/19 10:02:23;;;;;;;1.10;0.60;;;19.80;99.90;;;;;;5084146;28;20443;-87
2023/09/19 10:05:09;;;;;;;1.43;0.57;;;19.50;99.90;;;;;;5076736;28;20463;-87
2023/09/19 10:07:42;;;;;;;0.60;0.50;;;19.30;99.90;;;;;;5072312;28;20902;-88
2023/09/19 10:10:16;;;;;;;1.23;0.60;;;19.00;99.90;;;;;;5071177;28;20436;-88
2023/09/19 10:12:47;;;;;;;1.03;0.50;;;19.00;99.90;;;;;;5061450;28;20490;-88
2023/09/19 10:15:17;;;;;;;1.23;0.50;;;19.00;99.90;;;;;;5056199;28;20494;-89
2023/09/19 10:17:45;;;;;;;0.60;0.50;;;19.00;99.90;;;;;;5064201;28;20935;-88
2023/09/19 10:20:32;;;;;;;1.73;0.50;;;19.10;99.90;;;;;;5056771;28;20505;-89
2023/09/19 10:23:01;;;;;;;0.90;0.90;;;19.10;99.90;;;;;;5057902;28;20498;-89
2023/09/19 10:25:30;;;;;;;1.17;0.50;;;19.00;99.90;;;;;;5060864;28;20448;-88
2023/09/19 10:28:02;;;;;;;0.60;0.40;;;19.00;99.90;;;;;;5063009;28;20446;-89
2023/09/19 10:30:32;;;;;;;1.00;0.63;;;19.00;99.90;;;;;;5065464;28;20545;-88
2023/09/19 10:33:02;;;;;;;2.10;0.60;;;19.10;99.90;;;;;;5058057;28;20854;-87
2023/09/19 10:35:30;;;;;;;0.60;0.40;;;19.30;99.90;;;;;;5064835;28;20461;-90
2023/09/19 10:38:02;;;;;;;1.40;0.40;;;19.50;99.90;;;;;;5065500;28;20501;-87
2023/09/19 10:40:31;;;;;;;0.77;0.60;;;19.50;99.90;;;;;;5058760;28;20454;-88
2023/09/19 10:43:05;;;;;;;0.73;0.60;;;19.70;99.90;;;;;;5057342;28;20439;-87
2023/09/19 10:45:33;;;;;;;1.20;0.73;;;19.70;99.90;;;;;;5066698;28;20923;-88
2023/09/19 10:48:02;;;;;;;1.10;0.50;;;19.80;99.90;;;;;;5057048;28;20449;-87
2023/09/19 10:50:32;;;;;;;0.77;0.50;;;20.30;99.90;;;;;;5068533;28;20497;-86
2023/09/19 10:53:06;;;;;;;0.80;0.50;;;20.90;99.90;;;;;;5057313;28;20436;-88
2023/09/19 10:55:36;;;;;;;1.03;0.40;;;21.10;99.90;;;;;;5070080;28;20874;-87
2023/09/19 10:58:10;;;;;;;1.00;0.50;;;21.00;99.90;;;;;;5079038;28;20451;-87
2023/09/19 11:00:53;;;;;;;0.53;0.47;;;20.80;99.90;;;;;;5074170;28;20519;-86
2023/09/19 11:03:23;;;;;;;1.80;1.10;;;20.70;99.90;;;;;;5070843;28;20934;-87
2023/09/19 11:06:13;;;;;;;0.50;0.40;;;20.80;99.90;;;;;;5067269;28;20460;-89
2023/09/19 11:09:06;;;;;;;0.83;0.50;;;21.00;99.90;;;;;;5068712;28;20909;-88
2023/09/19 11:11:50;;;;;;;1.23;0.60;;;21.30;99.90;;;;;;5064444;28;20495;-87
2023/09/19 11:14:31;;;;;;;0.90;0.50;;;21.50;99.90;;;;;;5069219;28;20536;-89
2023/09/19 11:17:41;;;;;;;1.43;0.40;;;21.70;99.90;;;;;;5061266;28;20495;-89
2023/09/19 11:20:26;;;;;;;0.90;0.50;;;21.40;99.90;;;;;;5061733;28;20455;-87
2023/09/19 11:23:24;;;;;;;0.70;0.60;;;21.20;99.90;;;;;;5052514;28;20450;-89
2023/09/19 11:25:53;;;;;;;0.77;0.50;;;21.10;99.90;;;;;;5058393;28;20475;-88
2023/09/19 11:28:35;;;;;;;2.57;0.50;;;20.80;99.90;;;;;;5062067;28;20452;-86
2023/09/19 11:31:59;;;;;;;1.10;0.40;;;20.60;99.90;;;;;;5049839;28;20490;-88
2023/09/19 11:34:50;;;;;;;0.87;0.50;;;20.30;99.90;;;;;;5058147;28;20471;-89
2023/09/19 11:38:02;;;;;;;5.50;0.70;;;20.30;99.90;;;;;;5059477;28;20486;-87
2023/09/19 11:40:30;;;;;;;0.60;0.50;;;20.10;99.90;;;;;;5055909;28;20487;-87
2023/09/19 11:42:57;;;;;;;0.40;0.40;;;20.10;99.90;;;;;;5060597;28;20463;-86
2023/09/19 11:46:02;;;;;;;2.90;0.50;;;20.30;99.90;;;;;;5066362;28;20470;-88
2023/09/19 11:48:32;;;;;;;1.73;0.47;;;20.60;99.90;;;;;;5064605;28;20447;-88
2023/09/19 11:51:02;;;;;;;0.50;0.40;;;20.70;99.90;;;;;;5071310;28;20549;-87
2023/09/19 11:53:35;;;;;;;1.50;0.50;;;20.60;99.90;;;;;;5085447;28;20453;-88
2023/09/19 11:56:10;;;;;;;1.80;0.50;;;20.40;99.90;;;;;;5071590;28;20455;-87
2023/09/19 11:58:39;;;;;;;0.60;0.37;;;20.50;99.90;;;;;;5069229;28;20442;-88
2023/09/19 12:01:13;;;;;;;0.67;0.50;;;20.60;99.90;;;;;;5063213;28;20468;-87
2023/09/19 12:03:47;;;;;;;1.23;0.73;;;21.00;99.90;;;;;;5066517;28;20500;-89
2023/09/19 12:06:16;;;;;;;0.50;0.30;;;21.00;99.90;;;;;;5061235;28;20545;-89
2023/09/19 12:08:43;;;;;;;0.50;0.30;;;21.50;99.90;;;;;;5065360;28;20543;-88
2023/09/19 12:11:14;;;;;;;1.37;0.40;;;21.70;99.90;;;;;;5053947;28;20485;-87
2023/09/19 12:13:44;;;;;;;0.60;0.60;;;21.80;99.90;;;;;;5063382;28;20450;-87
2023/09/19 12:16:16;;;;;;;0.70;0.50;;;22.10;99.90;;;;;;5054284;28;20460;-90
2023/09/19 12:18:46;;;;;;;0.50;0.50;;;22.00;99.90;;;;;;5065615;28;20680;-89
2023/09/19 12:21:31;;;;;;;0.50;0.40;;;21.60;99.90;;;;;;5067124;28;20453;-89
2023/09/19 12:24:13;;;;;;;0.50;0.40;;;20.80;99.90;;;;;;5064073;28;20454;-87
2023/09/19 12:26:45;;;;;;;0.73;0.73;;;20.60;99.90;;;;;;5067076;28;20551;-89
2023/09/19 12:29:18;;;;;;;0.60;0.50;;;20.30;99.90;;;;;;5058553;28;20991;-90
2023/09/19 12:31:51;;;;;;;1.30;0.43;;;20.10;99.90;;;;;;5068228;28;20483;-88
2023/09/19 12:34:28;;;;;;;0.70;0.47;;;20.00;99.90;;;;;;5064755;28;20444;-91
2023/09/19 12:37:12;;;;;;;0.90;0.40;;;19.90;99.90;;;;;;5069073;28;20454;-89
2023/09/19 12:39:48;;;;;;;0.60;0.60;;;19.70;99.90;;;;;;5066517;28;20440;-87
2023/09/19 12:42:17;;;;;;;0.50;0.40;;;19.50;99.90;;;;;;5063866;28;20474;-88
2023/09/19 12:44:46;;;;;;;0.60;0.57;;;19.30;99.90;;;;;;5070924;28;20562;-87
2023/09/19 12:47:19;;;;;;;1.17;0.40;;;19.20;99.90;;;;;;5071471;28;20836;-90
2023/09/19 12:50:14;;;;;;;0.93;0.60;;;19.20;99.90;;;;;;5065711;28;21179;-88
2023/09/19 12:52:48;;;;;;;1.17;0.60;;;19.40;99.90;;;;;;5067152;28;20499;-90
2023/09/19 12:55:23;;;;;;;0.60;0.40;;;19.50;99.90;;;;;;5062739;28;20492;-89
2023/09/19 12:58:15;;;;;;;0.80;0.40;;;19.80;99.90;;;;;;5056444;28;20466;-90
2023/09/19 13:00:44;;;;;;;0.80;0.60;;;20.00;99.90;;;;;;5063197;28;20616;-87
2023/09/19 13:03:22;;;;;;;0.60;0.43;;;20.40;99.90;;;;;;5070219;28;20466;-87
2023/09/19 13:05:54;;;;;;;1.03;0.50;;;20.80;99.90;;;;;;5059374;28;20457;-86
2023/09/19 13:08:29;;;;;;;0.70;0.50;;;21.60;99.90;;;;;;5059781;28;20896;-90
2023/09/19 13:11:15;;;;;;;0.60;0.40;;;21.70;99.90;;;;;;5062854;28;20455;-88
2023/09/19 13:13:47;;;;;;;3.40;0.50;;;21.80;99.90;;;;;;5065535;28;20482;-87